Time;durP1;ratioP1;P1;durP2;ratioP2;P2;SDS_P1;SDS_P2;PMS_P1;PMS_P2;Temp;Humidity;BMP_temperature;BMP_pressure;BME280_temperature;BME280_humidity;BME280_pressure;Samples;Min_cycle;Max_cycle;Signal;HPM_P1;HPM_P2
2022/11/16 00:01:15;;;;;;;26.67;8.60;;;5.20;99.90;;;;;;4894475;29;20288;-88
2022/11/16 00:03:41;;;;;;;19.07;8.10;;;;;;;;;;4893476;29;20181;-91
2022/11/16 00:06:08;;;;;;;17.33;7.63;;;5.10;99.90;;;;;;4883551;29;20210;-89
2022/11/16 00:08:36;;;;;;;22.37;6.53;;;5.20;99.90;;;;;;4864308;29;20715;-90
2022/11/16 00:11:17;;;;;;;22.37;8.53;;;5.20;99.90;;;;;;4879783;29;20186;-89
2022/11/16 00:13:46;;;;;;;26.87;8.07;;;5.20;99.90;;;;;;4879676;29;20572;-90
2022/11/16 00:16:17;;;;;;;37.63;11.50;;;2.60;99.90;;;;;;4882252;29;20217;-89
2022/11/16 00:18:43;;;;;;;13.97;8.20;;;5.20;99.90;;;;;;4882778;29;20208;-89
2022/11/16 00:21:10;;;;;;;18.37;7.03;;;;;;;;;;4867525;29;20218;-89
2022/11/16 00:23:39;;;;;;;27.67;8.07;;;5.20;99.90;;;;;;4866689;29;20186;-87
2022/11/16 00:26:07;;;;;;;23.13;9.70;;;5.20;99.90;;;;;;4882336;29;20276;-90
2022/11/16 00:28:35;;;;;;;13.40;7.80;;;5.20;99.90;;;;;;4879008;29;20253;-90
2022/11/16 00:31:03;;;;;;;33.23;10.07;;;5.20;99.90;;;;;;4878179;29;20210;-89
2022/11/16 00:33:29;;;;;;;19.43;6.07;;;;;;;;;;4879363;29;20257;-89
2022/11/16 00:35:58;;;;;;;21.03;7.93;;;;;;;;;;4862171;29;20190;-89
2022/11/16 00:38:24;;;;;;;21.57;8.90;;;;;;;;;;4862213;29;20186;-89
2022/11/16 00:40:50;;;;;;;21.57;8.03;;;;;;;;;;4847342;29;20675;-89
2022/11/16 00:43:16;;;;;;;23.70;10.63;;;;;;;;;;4862209;29;20204;-90
2022/11/16 00:45:50;;;;;;;28.63;9.50;;;5.20;99.90;;;;;;4862349;29;20217;-89
2022/11/16 00:48:16;;;;;;;22.17;9.10;;;;;;;;;;4877373;29;20210;-89
2022/11/16 00:50:44;;;;;;;27.53;9.83;;;5.20;99.90;;;;;;4864790;29;20197;-90
2022/11/16 00:53:14;;;;;;;39.37;10.33;;;5.20;99.90;;;;;;4880613;29;20182;-89
2022/11/16 00:55:40;;;;;;;20.83;10.90;;;;;;;;;;4882577;29;20234;-89
2022/11/16 00:58:09;;;;;;;23.33;6.87;;;;;;;;;;4865317;29;20193;-90
2022/11/16 01:00:35;;;;;;;21.30;7.23;;;;;;;;;;4865477;29;20214;-89
2022/11/16 01:03:01;;;;;;;36.13;9.90;;;;;;;;;;4865048;29;20192;-89
2022/11/16 01:05:27;;;;;;;24.40;7.93;;;;;;;;;;4865371;29;20189;-90
2022/11/16 01:07:53;;;;;;;16.97;7.77;;;;;;;;;;4865173;29;20661;-90
2022/11/16 01:10:21;;;;;;;21.37;9.73;;;5.30;99.90;;;;;;4865109;29;20182;-89
2022/11/16 01:12:49;;;;;;;20.07;7.57;;;5.30;99.90;;;;;;4881502;29;20178;-90
2022/11/16 01:15:16;;;;;;;20.10;8.43;;;5.30;99.90;;;;;;4882063;29;20183;-89
2022/11/16 01:17:43;;;;;;;21.33;7.97;;;;;;;;;;4880419;29;20541;-89
2022/11/16 01:20:14;;;;;;;16.43;7.57;;;5.30;99.90;;;;;;4864506;29;20284;-89
2022/11/16 01:22:40;;;;;;;20.23;6.27;;;5.30;99.90;;;;;;4881956;29;20224;-89
2022/11/16 01:25:07;;;;;;;19.27;7.37;;;5.10;99.90;;;;;;4881709;29;20214;-89
2022/11/16 01:27:33;;;;;;;23.07;9.87;;;;;;;;;;4881429;29;20236;-89
2022/11/16 01:30:00;;;;;;;16.87;7.87;;;;;;;;;;4884128;29;20190;-89
2022/11/16 01:32:26;;;;;;;22.23;9.17;;;;;;;;;;4871186;29;20201;-90
2022/11/16 01:34:52;;;;;;;18.17;6.37;;;;;;;;;;4872310;29;20238;-90
2022/11/16 01:37:18;;;;;;;21.97;7.20;;;;;;;;;;4867104;29;20193;-89
2022/11/16 01:39:44;;;;;;;12.67;6.30;;;;;;;;;;4865407;29;20217;-90
2022/11/16 01:42:17;;;;;;;18.10;6.00;;;5.30;99.90;;;;;;4864672;29;20217;-90
2022/11/16 01:44:43;;;;;;;21.80;5.67;;;;;;;;;;4880520;29;20189;-90
2022/11/16 01:47:12;;;;;;;19.60;8.43;;;5.30;99.90;;;;;;4864404;29;20723;-91
2022/11/16 01:49:46;;;;;;;21.00;7.17;;;5.30;99.90;;;;;;4880267;29;20213;-89
2022/11/16 01:52:21;;;;;;;15.37;5.77;;;5.30;99.90;;;;;;4879898;29;20184;-88
2022/11/16 01:54:50;;;;;;;20.77;7.47;;;5.30;99.90;;;;;;4880252;29;20190;-89
2022/11/16 01:57:22;;;;;;;26.70;9.23;;;5.30;99.90;;;;;;4879543;29;20186;-89
2022/11/16 01:59:52;;;;;;;16.50;7.30;;;5.30;99.90;;;;;;4881043;29;20210;-89
2022/11/16 02:02:19;;;;;;;17.87;6.83;;;;;;;;;;4879750;29;20194;-88
2022/11/16 02:04:46;;;;;;;21.80;7.67;;;5.30;99.90;;;;;;4864380;29;20190;-88
2022/11/16 02:11:01;;;;;;;13.00;6.33;;;5.30;99.90;;;;;;4870839;29;20261;-87
2022/11/16 02:13:40;;;;;;;18.77;7.50;;;5.30;99.90;;;;;;4880589;29;20240;-88
2022/11/16 02:16:41;;;;;;;14.27;8.03;;;5.30;99.90;;;;;;4863841;29;20177;-89
2022/11/16 02:19:28;;;;;;;24.20;7.40;;;5.30;99.90;;;;;;4879406;29;20201;-89
2022/11/16 02:22:17;;;;;;;30.07;6.53;;;5.30;99.90;;;;;;4864560;29;20240;-89
2022/11/16 02:25:05;;;;;;;20.07;8.83;;;5.30;99.90;;;;;;4863829;29;20661;-89
2022/11/16 02:27:57;;;;;;;17.00;6.97;;;6.20;99.90;;;;;;4879347;29;20326;-89
2022/11/16 02:30:23;;;;;;;24.57;8.03;;;;;;;;;;4879180;29;20197;-89
2022/11/16 02:32:55;;;;;;;23.10;7.93;;;5.30;99.90;;;;;;4863798;29;20691;-89
2022/11/16 02:35:28;;;;;;;22.90;7.87;;;5.40;99.90;;;;;;4878937;29;20228;-89
2022/11/16 02:38:02;;;;;;;16.43;6.90;;;5.30;99.90;;;;;;4879495;29;20178;-89
2022/11/16 02:40:31;;;;;;;7.57;3.63;;;5.30;99.90;;;;;;4878934;29;20296;-89
2022/11/16 02:43:29;;;;;;;13.43;5.33;;;5.30;99.90;;;;;;4879128;29;20278;-89
2022/11/16 02:45:59;;;;;;;16.87;7.67;;;5.40;99.90;;;;;;4880079;29;20182;-88
2022/11/16 02:48:32;;;;;;;23.37;6.03;;;5.40;99.90;;;;;;4878779;29;20181;-88
2022/11/16 02:50:58;;;;;;;12.53;6.13;;;;;;;;;;4880228;29;20178;-88
2022/11/16 02:53:24;;;;;;;16.43;6.73;;;5.30;99.90;;;;;;4863068;29;20232;-89
2022/11/16 02:55:50;;;;;;;17.00;5.90;;;;;;;;;;4880105;29;20257;-89
2022/11/16 02:58:21;;;;;;;14.17;5.87;;;5.40;99.90;;;;;;4863323;29;20189;-89
2022/11/16 03:01:01;;;;;;;21.93;5.20;;;5.30;99.90;;;;;;4878974;29;20214;-89
2022/11/16 03:04:25;;;;;;;11.23;5.67;;;8.20;99.90;;;;;;4878677;29;20603;-89
2022/11/16 03:06:55;;;;;;;12.83;5.77;;;5.40;99.90;;;;;;4804625;29;20188;-89
2022/11/16 03:09:26;;;;;;;19.70;7.20;;;5.30;99.90;;;;;;4865790;29;20198;-88
2022/11/16 03:12:00;;;;;;;14.57;6.93;;;5.30;99.90;;;;;;4878263;29;20193;-88
2022/11/16 03:14:45;;;;;;;10.40;6.17;;;5.30;99.90;;;;;;4878620;29;20181;-89
2022/11/16 03:17:19;;;;;;;13.03;4.70;;;5.30;99.90;;;;;;4880036;29;20206;-89
2022/11/16 03:20:12;;;;;;;16.73;7.70;;;5.30;99.90;;;;;;4878684;29;20205;-89
2022/11/16 03:22:51;;;;;;;21.23;5.10;;;5.30;99.90;;;;;;4878586;29;20234;-89
2022/11/16 03:25:19;;;;;;;10.70;5.37;;;5.30;99.90;;;;;;4878370;29;20192;-89
2022/11/16 03:27:56;;;;;;;14.47;6.00;;;9.00;99.90;;;;;;4878685;29;20229;-88
2022/11/16 03:30:25;;;;;;;10.73;4.53;;;5.30;99.90;;;;;;4883669;29;20616;-89
2022/11/16 03:33:08;;;;;;;16.57;6.37;;;4.90;99.90;;;;;;4882532;29;20182;-89
2022/11/16 03:35:34;;;;;;;22.43;6.00;;;;;;;;;;4900809;29;20504;-88
2022/11/16 03:38:04;;;;;;;11.17;4.57;;;5.40;99.90;;;;;;4885601;29;20232;-89
2022/11/16 03:40:32;;;;;;;11.23;4.87;;;5.40;99.90;;;;;;4878321;29;20214;-89
2022/11/16 03:43:00;;;;;;;18.97;6.87;;;5.40;99.90;;;;;;4878299;29;20181;-89
2022/11/16 03:45:26;;;;;;;8.33;5.20;;;;;;;;;;4877917;29;20189;-88
2022/11/16 03:47:52;;;;;;;15.37;5.30;;;;;;;;;;4862778;29;20186;-88
2022/11/16 03:50:19;;;;;;;12.70;5.83;;;;;;;;;;4862555;29;20197;-89
2022/11/16 03:52:45;;;;;;;11.37;4.07;;;;;;;;;;4862698;29;20547;-88
2022/11/16 03:55:11;;;;;;;24.77;5.57;;;;;;;;;;4862815;29;20193;-89
2022/11/16 03:57:37;;;;;;;18.73;5.87;;;;;;;;;;4862356;29;20994;-89
2022/11/16 04:00:05;;;;;;;11.57;5.67;;;5.40;99.90;;;;;;4862475;29;20217;-88
2022/11/16 04:02:31;;;;;;;8.70;5.33;;;;;;;;;;4877445;29;20594;-88
2022/11/16 04:24:24;;;;;;;8.40;2.90;;;7.80;99.90;;;;;;4879890;29;20669;-88
2022/11/16 04:29:40;;;;;;;18.83;3.43;;;;;;;;;;4882689;29;20193;-88
2022/11/16 04:37:47;;;;;;;13.20;4.13;;;;;;;;;;4868674;29;20555;-88
2022/11/16 04:40:23;;;;;;;14.63;5.37;;;5.30;99.90;;;;;;4865763;29;20213;-88
2022/11/16 04:43:02;;;;;;;7.40;3.90;;;5.20;99.90;;;;;;4881631;29;20182;-88
2022/11/16 04:48:13;;;;;;;7.30;3.93;;;5.30;99.90;;;;;;4882583;29;20289;-88
2022/11/16 04:50:42;;;;;;;8.17;3.90;;;;;;;;;;4850179;29;20691;-88
2022/11/16 04:53:08;;;;;;;9.37;4.13;;;;;;;;;;4882435;29;20587;-88
2022/11/16 04:55:34;;;;;;;9.47;4.07;;;;;;;;;;4880204;29;20181;-88
2022/11/16 04:58:01;;;;;;;6.70;2.83;;;;;;;;;;4884104;29;20189;-88
2022/11/16 05:00:27;;;;;;;8.83;3.40;;;;;;;;;;4881694;29;20268;-89
2022/11/16 05:02:55;;;;;;;10.30;4.87;;;;;;;;;;4885864;29;20201;-87
2022/11/16 05:05:21;;;;;;;10.13;4.17;;;;;;;;;;4882073;29;20194;-87
2022/11/16 05:07:47;;;;;;;12.97;4.73;;;;;;;;;;4881891;29;20652;-87
2022/11/16 05:10:14;;;;;;;6.57;3.33;;;5.30;99.90;;;;;;4868525;29;20249;-87
2022/11/16 05:12:42;;;;;;;8.93;4.47;;;;;;;;;;4877528;29;20562;-87
2022/11/16 05:15:08;;;;;;;11.73;3.50;;;5.30;99.90;;;;;;4883790;29;20189;-85
2022/11/16 05:17:35;;;;;;;6.67;3.33;;;5.40;99.90;;;;;;4883787;29;20658;-87
2022/11/16 05:22:55;;;;;;;10.10;3.67;;;5.30;99.90;;;;;;4900840;29;20253;-87
2022/11/16 05:25:21;;;;;;;9.07;3.07;;;;;;;;;;4900620;29;20268;-87
2022/11/16 05:27:47;;;;;;;8.03;4.00;;;5.30;99.90;;;;;;4880363;29;20329;-88
2022/11/16 05:30:13;;;;;;;6.53;3.00;;;;;;;;;;4880172;29;20182;-88
2022/11/16 05:32:39;;;;;;;5.97;2.77;;;;;;;;;;4865640;29;20193;-87
2022/11/16 05:35:05;;;;;;;8.40;3.37;;;;;;;;;;4879050;29;20212;-88
2022/11/16 05:37:31;;;;;;;6.97;3.60;;;;;;;;;;4879817;29;20181;-87
2022/11/16 05:39:57;;;;;;;4.20;2.17;;;;;;;;;;4875232;29;20210;-89
2022/11/16 05:42:26;;;;;;;4.27;2.17;;;;;;;;;;4859235;29;20238;-90
2022/11/16 05:44:52;;;;;;;6.30;2.57;;;;;;;;;;4873683;29;20964;-87
2022/11/16 05:47:18;;;;;;;2.87;2.20;;;;;;;;;;4876901;29;20221;-88
2022/11/16 05:49:44;;;;;;;4.43;2.40;;;;;;;;;;4875410;29;20784;-88
2022/11/16 05:52:10;;;;;;;2.60;1.63;;;;;;;;;;4877826;29;20189;-88
2022/11/16 05:54:36;;;;;;;2.50;2.30;;;;;;;;;;4877368;29;20643;-87
2022/11/16 05:57:02;;;;;;;2.03;1.80;;;;;;;;;;4877999;29;20269;-87
2022/11/16 05:59:28;;;;;;;2.37;2.00;;;;;;;;;;4878203;29;20215;-87
2022/11/16 06:01:55;;;;;;;2.83;2.20;;;;;;;;;;4879911;29;20222;-87
2022/11/16 06:04:21;;;;;;;3.23;1.93;;;;;;;;;;4878525;29;20190;-88
2022/11/16 06:06:47;;;;;;;2.70;1.70;;;;;;;;;;4879241;29;20681;-88
2022/11/16 06:09:13;;;;;;;2.83;2.53;;;;;;;;;;4882436;29;20276;-88
2022/11/16 06:11:40;;;;;;;3.20;2.30;;;;;;;;;;4887312;29;20209;-90
2022/11/16 06:14:06;;;;;;;4.73;2.10;;;;;;;;;;4880778;29;20214;-89
2022/11/16 06:16:32;;;;;;;4.23;2.27;;;;;;;;;;4864150;29;20644;-88
2022/11/16 06:18:59;;;;;;;3.27;2.23;;;;;;;;;;4878485;29;20189;-86
2022/11/16 06:21:25;;;;;;;2.93;2.00;;;;;;;;;;4879055;29;20298;-90
2022/11/16 06:23:51;;;;;;;4.30;2.37;;;;;;;;;;4878583;29;20185;-87
2022/11/16 06:26:17;;;;;;;2.27;1.87;;;;;;;;;;4878301;29;20556;-87
2022/11/16 06:28:43;;;;;;;2.23;1.70;;;;;;;;;;4863988;29;20762;-86
2022/11/16 06:31:09;;;;;;;5.57;2.67;;;;;;;;;;4877352;29;20189;-87
2022/11/16 06:33:35;;;;;;;2.57;1.60;;;;;;;;;;4882758;29;20652;-88
2022/11/16 06:36:01;;;;;;;7.50;2.13;;;;;;;;;;4882198;29;20206;-88
2022/11/16 06:38:34;;;;;;;2.93;2.63;;;4.90;99.90;;;;;;4878615;29;20209;-89
2022/11/16 06:41:00;;;;;;;4.57;3.27;;;;;;;;;;4862601;29;20225;-90
2022/11/16 06:43:26;;;;;;;4.17;2.60;;;;;;;;;;4877482;29;20560;-88
2022/11/16 06:45:54;;;;;;;5.43;3.33;;;4.80;99.90;;;;;;4877567;29;20190;-88
2022/11/16 06:48:20;;;;;;;9.60;4.10;;;;;;;;;;4877952;29;20557;-89
2022/11/16 06:50:48;;;;;;;17.70;8.13;;;4.80;99.90;;;;;;4878467;29;20554;-87
2022/11/16 06:53:14;;;;;;;15.90;5.93;;;;;;;;;;4877190;29;20212;-88
2022/11/16 06:55:41;;;;;;;7.10;3.83;;;;;;;;;;4886100;29;20241;-87
2022/11/16 06:58:07;;;;;;;13.93;5.80;;;;;;;;;;4883502;29;20192;-88
2022/11/16 07:00:32;;;;;;;6.40;3.17;;;4.80;99.90;;;;;;4861805;29;20229;-87
2022/11/16 07:02:58;;;;;;;6.43;3.50;;;;;;;;;;4879332;29;20190;-88
2022/11/16 07:05:24;;;;;;;3.43;2.97;;;4.70;99.90;;;;;;4878768;29;20194;-87
2022/11/16 07:07:54;;;;;;;7.70;3.50;;;4.80;99.90;;;;;;4879938;29;20212;-88
2022/11/16 07:10:20;;;;;;;5.20;3.47;;;;;;;;;;4881608;29;20197;-87
2022/11/16 07:12:45;;;;;;;5.27;2.73;;;4.70;99.90;;;;;;4881933;29;20186;-85
2022/11/16 07:15:11;;;;;;;4.50;3.20;;;4.50;99.90;;;;;;4883091;29;20208;-87
2022/11/16 07:17:37;;;;;;;7.13;3.30;;;4.30;99.90;;;;;;4885455;29;20194;-86
2022/11/16 07:20:03;;;;;;;8.70;3.20;;;;;;;;;;4882074;29;20721;-85
2022/11/16 07:22:29;;;;;;;7.63;3.60;;;;;;;;;;4874847;29;20191;-86
2022/11/16 07:24:55;;;;;;;4.73;2.93;;;;;;;;;;4876526;29;20209;-86
2022/11/16 07:27:21;;;;;;;10.67;3.10;;;;;;;;;;4877849;29;20268;-88
2022/11/16 07:29:46;;;;;;;5.87;3.57;;;4.60;99.90;;;;;;4879042;29;20667;-87
2022/11/16 07:32:12;;;;;;;15.45;5.38;;;4.70;99.90;;;;;;4862608;29;20425;-86
2022/11/16 07:34:38;;;;;;;10.50;3.23;;;;;;;;;;4879460;29;20185;-86
2022/11/16 07:37:04;;;;;;;6.80;4.43;;;;;;;;;;4897046;29;20185;-86
2022/11/16 07:39:30;;;;;;;8.37;4.30;;;;;;;;;;4878124;29;20193;-87
2022/11/16 07:41:56;;;;;;;4.07;2.60;;;4.60;99.90;;;;;;4863734;29;20890;-86
2022/11/16 07:44:22;;;;;;;5.87;2.50;;;;;;;;;;4878582;29;20186;-88
2022/11/16 07:46:48;;;;;;;10.17;3.27;;;4.50;99.90;;;;;;4879007;29;20193;-86
2022/11/16 07:49:15;;;;;;;6.70;4.20;;;4.50;99.90;;;;;;4880445;29;20215;-87
2022/11/16 07:51:41;;;;;;;1.80;1.70;;;;;;;;;;4898848;29;20268;-86
2022/11/16 07:54:07;;;;;;;2.07;1.77;;;;;;;;;;4864023;29;20190;-87
2022/11/16 07:56:33;;;;;;;2.20;1.90;;;;;;;;;;4897574;29;20192;-88
2022/11/16 07:59:00;;;;;;;2.67;2.43;;;;;;;;;;4895479;29;20188;-88
2022/11/16 08:01:26;;;;;;;2.60;1.93;;;;;;;;;;4894845;29;20324;-88
2022/11/16 08:03:52;;;;;;;2.30;1.97;;;4.40;99.90;;;;;;4878880;29;20181;-85
2022/11/16 08:06:26;;;;;;;4.00;2.30;;;5.00;99.90;;;;;;4897486;29;20250;-87
2022/11/16 08:08:52;;;;;;;3.70;1.60;;;;;;;;;;4879659;29;20232;-89
2022/11/16 08:11:18;;;;;;;7.63;2.93;;;;;;;;;;4877027;29;20259;-89
2022/11/16 08:13:44;;;;;;;2.27;1.87;;;;;;;;;;4879410;29;20603;-90
2022/11/16 08:16:13;;;;;;;3.10;2.67;;;4.40;99.90;;;;;;4880120;29;20185;-89
2022/11/16 08:18:40;;;;;;;4.57;2.40;;;;;;;;;;4880288;29;20193;-88
2022/11/16 08:21:07;;;;;;;6.87;2.37;;;4.40;99.90;;;;;;4880125;29;20224;-90
2022/11/16 08:23:33;;;;;;;6.23;1.83;;;;;;;;;;4897233;29;20197;-90
2022/11/16 08:26:02;;;;;;;2.90;1.63;;;4.50;99.90;;;;;;4898162;29;20185;-90
2022/11/16 08:28:29;;;;;;;5.70;1.93;;;;;;;;;;4899096;29;20244;-92
2022/11/16 08:30:58;;;;;;;0.77;0.77;;;4.30;99.90;;;;;;4884119;29;20197;-90
2022/11/16 08:33:27;;;;;;;1.93;1.40;;;4.30;99.90;;;;;;4888111;29;20200;-92
2022/11/16 08:35:53;;;;;;;2.27;1.70;;;;;;;;;;4891675;29;20193;-92
2022/11/16 08:38:20;;;;;;;2.53;1.60;;;;;;;;;;4893408;29;20195;-90
2022/11/16 08:40:49;;;;;;;4.37;2.70;;;4.30;99.90;;;;;;4894113;29;20233;-90
2022/11/16 08:43:15;;;;;;;3.13;2.33;;;;;;;;;;4910684;29;20186;-91
2022/11/16 08:45:41;;;;;;;2.00;1.87;;;;;;;;;;4893228;29;20196;-90
2022/11/16 08:48:06;;;;;;;3.20;1.90;;;4.10;99.90;;;;;;4894927;29;20185;-89
2022/11/16 08:50:32;;;;;;;2.03;1.87;;;;;;;;;;4879985;29;20197;-91
2022/11/16 08:53:01;;;;;;;2.93;2.10;;;4.30;99.90;;;;;;4897421;29;20242;-92
2022/11/16 08:55:27;;;;;;;3.33;2.23;;;;;;;;;;4896952;29;20185;-91
2022/11/16 08:57:55;;;;;;;4.70;2.77;;;;;;;;;;4896397;29;20220;-90
2022/11/16 09:00:21;;;;;;;16.90;8.43;;;;;;;;;;4912745;29;20224;-89
2022/11/16 09:02:47;;;;;;;21.40;10.90;;;;;;;;;;4881816;29;20217;-90
2022/11/16 09:05:16;;;;;;;4.57;3.10;;;;;;;;;;4891605;29;20201;-90
2022/11/16 09:07:44;;;;;;;6.53;2.87;;;;;;;;;;4897966;29;20213;-89
2022/11/16 09:10:10;;;;;;;3.83;2.47;;;;;;;;;;4880394;29;20286;-90
2022/11/16 09:12:37;;;;;;;3.27;2.07;;;4.40;99.90;;;;;;4884232;29;20784;-89
2022/11/16 09:15:06;;;;;;;3.60;2.73;;;4.40;99.90;;;;;;4880057;29;20268;-91
2022/11/16 09:17:32;;;;;;;2.37;1.67;;;;;;;;;;4883194;29;20185;-90
2022/11/16 09:20:00;;;;;;;2.50;1.70;;;4.50;99.90;;;;;;4899977;29;20212;-88
2022/11/16 09:22:26;;;;;;;1.07;1.00;;;;;;;;;;4884443;29;20520;-90
2022/11/16 09:24:52;;;;;;;1.03;1.03;;;;;;;;;;4883940;29;20182;-89
2022/11/16 09:27:23;;;;;;;1.07;1.03;;;;;;;;;;4886054;29;20189;-92
2022/11/16 09:29:49;;;;;;;2.07;1.20;;;;;;;;;;4884430;29;20201;-91
2022/11/16 09:32:15;;;;;;;0.77;0.77;;;;;;;;;;4882739;29;20197;-90
2022/11/16 09:34:41;;;;;;;1.43;1.20;;;;;;;;;;4899412;29;20197;-89
2022/11/16 09:37:10;;;;;;;0.97;0.97;;;4.40;99.90;;;;;;4898007;29;20257;-89
2022/11/16 09:39:36;;;;;;;2.57;1.87;;;;;;;;;;4882344;29;20207;-89
2022/11/16 09:42:02;;;;;;;4.07;1.67;;;;;;;;;;4866638;29;20229;-90
2022/11/16 09:45:03;;;;;;;3.23;1.93;;;4.50;99.90;;;;;;4882736;29;20201;-87
2022/11/16 09:47:48;;;;;;;1.30;1.17;;;4.60;99.90;;;;;;4864260;29;20222;-89
2022/11/16 09:50:41;;;;;;;0.90;0.90;;;4.60;99.90;;;;;;4864833;29;20185;-92
2022/11/16 09:53:47;;;;;;;3.37;1.90;;;4.60;99.90;;;;;;4864621;29;20182;-89
2022/11/16 09:56:21;;;;;;;1.30;1.20;;;4.70;99.90;;;;;;4834316;29;20190;-90
2022/11/16 09:58:59;;;;;;;4.03;1.80;;;4.70;99.90;;;;;;4865020;29;20206;-90
2022/11/16 10:01:33;;;;;;;1.20;1.00;;;4.70;99.90;;;;;;4878304;29;20219;-89
2022/11/16 10:04:14;;;;;;;1.63;1.40;;;4.80;99.90;;;;;;4900709;29;20188;-90
2022/11/16 10:06:57;;;;;;;5.10;1.77;;;4.80;99.90;;;;;;4883324;29;20176;-89
2022/11/16 10:09:24;;;;;;;2.13;1.63;;;4.90;99.90;;;;;;4883281;29;20204;-90
2022/11/16 10:12:15;;;;;;;3.47;2.20;;;4.60;99.90;;;;;;4867600;29;20201;-90
2022/11/16 10:14:53;;;;;;;3.50;2.03;;;4.90;99.90;;;;;;4883538;29;20634;-91
2022/11/16 10:17:21;;;;;;;1.20;1.10;;;3.60;99.90;;;;;;4883174;29;20260;-89
2022/11/16 10:19:53;;;;;;;4.63;1.13;;;4.90;99.90;;;;;;4883072;29;20185;-91
2022/11/16 10:23:03;;;;;;;1.67;1.57;;;4.80;99.90;;;;;;4883122;29;20185;-89
2022/11/16 10:25:42;;;;;;;3.40;2.20;;;4.90;99.90;;;;;;4904243;29;20245;-89
2022/11/16 10:28:46;;;;;;;1.27;1.10;;;5.30;99.90;;;;;;4885376;29;20324;-89
2022/11/16 10:31:29;;;;;;;0.80;0.80;;;4.70;99.90;;;;;;4901782;29;20173;-90
2022/11/16 10:34:02;;;;;;;1.40;1.30;;;4.90;99.90;;;;;;4884364;29;20727;-90
2022/11/16 10:36:31;;;;;;;1.30;1.23;;;5.00;99.90;;;;;;4884800;29;20181;-90
2022/11/16 10:38:59;;;;;;;0.93;0.93;;;5.00;99.90;;;;;;4901682;29;20185;-89
2022/11/16 10:41:34;;;;;;;5.57;1.13;;;5.00;99.90;;;;;;4868789;29;20216;-88
2022/11/16 10:44:00;;;;;;;2.77;1.17;;;;;;;;;;4885294;29;20184;-89
2022/11/16 10:46:35;;;;;;;2.23;1.37;;;4.90;99.90;;;;;;4889083;29;20185;-87
2022/11/16 10:49:54;;;;;;;2.23;1.33;;;4.90;99.90;;;;;;4887368;29;20169;-87
2022/11/16 10:52:22;;;;;;;2.87;1.73;;;;;;;;;;4829311;29;20237;-86
2022/11/16 10:54:48;;;;;;;3.87;1.93;;;5.00;99.90;;;;;;4878871;29;20261;-88
2022/11/16 10:57:15;;;;;;;4.30;1.17;;;;;;;;;;4901581;29;20189;-90
2022/11/16 10:59:46;;;;;;;1.53;1.40;;;5.00;99.90;;;;;;4905645;29;20184;-89
2022/11/16 11:02:46;;;;;;;2.93;2.00;;;6.30;99.90;;;;;;4885523;29;20200;-89
2022/11/16 11:05:20;;;;;;;2.57;2.00;;;5.00;99.90;;;;;;4901063;29;20255;-90
2022/11/16 11:08:06;;;;;;;4.93;2.33;;;5.00;99.90;;;;;;4899710;29;20195;-90
2022/11/16 11:10:37;;;;;;;1.33;1.27;;;5.00;99.90;;;;;;4883668;29;20213;-89
2022/11/16 11:13:03;;;;;;;3.03;1.70;;;;;;;;;;4900219;29;20177;-89
2022/11/16 11:15:29;;;;;;;2.40;1.57;;;;;;;;;;4890006;29;20193;-88
2022/11/16 11:18:12;;;;;;;1.93;1.47;;;4.90;99.90;;;;;;4908073;29;20173;-88
2022/11/16 11:20:43;;;;;;;1.40;1.30;;;4.90;99.90;;;;;;4883652;29;20274;-89
2022/11/16 11:23:20;;;;;;;1.73;0.93;;;4.90;99.90;;;;;;4881081;29;20188;-91
2022/11/16 11:25:57;;;;;;;2.23;1.40;;;4.60;99.90;;;;;;4884867;29;20180;-91
2022/11/16 11:28:27;;;;;;;3.20;1.37;;;4.90;99.90;;;;;;4882148;29;20748;-91
2022/11/16 11:31:21;;;;;;;1.60;1.50;;;4.90;99.90;;;;;;4884259;29;20224;-91
2022/11/16 11:33:53;;;;;;;0.90;0.90;;;5.30;99.90;;;;;;4881855;29;20199;-91
2022/11/16 11:36:29;;;;;;;4.93;2.30;;;4.90;99.90;;;;;;4883318;29;20181;-90
2022/11/16 11:39:08;;;;;;;2.20;1.97;;;4.90;99.90;;;;;;4883228;29;20187;-92
2022/11/16 11:41:40;;;;;;;7.17;3.80;;;4.90;99.90;;;;;;4868084;29;20220;-92
2022/11/16 11:44:16;;;;;;;3.03;2.43;;;4.90;99.90;;;;;;4881346;29;20183;-91
2022/11/16 11:46:50;;;;;;;2.63;1.87;;;4.90;99.90;;;;;;4882984;29;20203;-91
2022/11/16 11:49:38;;;;;;;4.67;1.50;;;4.90;99.90;;;;;;4883433;29;20180;-92
2022/11/16 11:52:49;;;;;;;1.20;1.10;;;4.90;99.90;;;;;;4877819;29;20192;-90
2022/11/16 11:55:18;;;;;;;4.00;2.00;;;4.90;99.90;;;;;;4877212;29;20675;-90
2022/11/16 11:57:52;;;;;;;3.97;2.23;;;4.90;99.90;;;;;;4900133;29;20249;-89
2022/11/16 12:00:19;;;;;;;4.93;2.40;;;4.90;99.90;;;;;;4883280;29;20220;-89
2022/11/16 12:03:41;;;;;;;4.23;2.20;;;5.40;99.90;;;;;;4884674;29;20253;-89
2022/11/16 12:06:31;;;;;;;2.33;1.57;;;4.80;99.90;;;;;;4812170;29;20196;-88
2022/11/16 12:09:10;;;;;;;4.83;2.03;;;4.80;99.90;;;;;;4882942;29;20193;-89
2022/11/16 12:12:03;;;;;;;0.90;0.90;;;5.30;99.90;;;;;;4908415;29;20244;-88
2022/11/16 12:14:51;;;;;;;1.13;1.13;;;4.50;99.90;;;;;;4901837;29;20230;-86
2022/11/16 12:17:48;;;;;;;2.90;1.20;;;4.70;99.90;;;;;;4902927;29;20170;-85
2022/11/16 12:20:43;;;;;;;1.87;1.33;;;4.70;99.90;;;;;;4903789;29;20228;-87
2022/11/16 12:23:40;;;;;;;1.53;1.27;;;4.70;99.90;;;;;;4883428;29;20200;-88
2022/11/16 12:26:27;;;;;;;1.47;1.37;;;4.70;99.90;;;;;;4883068;29;20284;-87
2022/11/16 12:29:12;;;;;;;4.00;1.97;;;4.70;99.90;;;;;;4883441;29;20304;-86
2022/11/16 12:32:01;;;;;;;1.97;1.27;;;4.70;99.90;;;;;;4899027;29;20184;-86
2022/11/16 12:34:47;;;;;;;2.97;2.23;;;4.70;99.90;;;;;;4899470;29;20177;-87
2022/11/16 12:37:24;;;;;;;6.50;2.13;;;4.70;99.90;;;;;;4882444;29;20185;-86
2022/11/16 12:40:11;;;;;;;5.83;2.07;;;4.60;99.90;;;;;;4899288;29;20204;-87
2022/11/16 12:42:58;;;;;;;3.07;2.10;;;5.10;99.90;;;;;;4882030;29;20548;-87
2022/11/16 12:45:34;;;;;;;8.37;2.00;;;4.60;99.90;;;;;;4899509;29;20681;-85
2022/11/16 12:48:11;;;;;;;2.77;1.53;;;7.80;99.90;;;;;;4885433;29;20216;-87
2022/11/16 12:50:53;;;;;;;5.17;2.67;;;4.60;99.90;;;;;;4885276;29;20216;-86
2022/11/16 12:53:34;;;;;;;3.50;1.83;;;6.90;99.90;;;;;;4886487;29;20542;-87
2022/11/16 12:56:00;;;;;;;1.50;1.40;;;;;;;;;;4886055;29;20185;-87
2022/11/16 12:59:04;;;;;;;1.60;1.47;;;4.50;99.90;;;;;;4885802;29;20244;-87
2022/11/16 13:01:32;;;;;;;1.77;1.17;;;4.50;99.90;;;;;;4882929;29;20584;-88
2022/11/16 13:04:14;;;;;;;3.00;1.43;;;4.50;99.90;;;;;;4884748;29;20185;-87
2022/11/16 13:07:09;;;;;;;0.90;0.90;;;8.00;99.90;;;;;;4886519;29;20188;-87
2022/11/16 13:09:39;;;;;;;3.17;1.90;;;7.30;99.90;;;;;;4877389;29;20563;-90
2022/11/16 13:12:22;;;;;;;5.67;3.77;;;4.50;99.90;;;;;;4901663;29;20181;-89
2022/11/16 13:14:50;;;;;;;1.73;1.33;;;4.20;99.90;;;;;;4885214;29;20185;-88
2022/11/16 13:17:22;;;;;;;1.70;1.60;;;4.90;99.90;;;;;;4885066;29;20193;-87
2022/11/16 13:20:00;;;;;;;1.33;1.23;;;8.00;99.90;;;;;;4901634;29;20176;-88
2022/11/16 13:22:29;;;;;;;1.50;1.40;;;;;;;;;;4898335;29;20649;-88
2022/11/16 13:25:13;;;;;;;1.40;1.30;;;4.40;99.90;;;;;;4884046;29;20595;-89
2022/11/16 13:28:07;;;;;;;2.27;1.60;;;4.30;99.90;;;;;;4897742;29;20189;-89
2022/11/16 13:30:59;;;;;;;3.33;2.00;;;4.30;99.90;;;;;;4882994;29;20178;-89
2022/11/16 13:33:43;;;;;;;1.60;1.10;;;4.20;99.90;;;;;;4881858;29;20619;-88
2022/11/16 13:36:31;;;;;;;3.27;2.03;;;4.30;99.90;;;;;;4887659;29;20185;-86
2022/11/16 13:38:57;;;;;;;5.33;2.27;;;4.30;99.90;;;;;;4884566;29;20677;-89
2022/11/16 13:41:41;;;;;;;2.57;2.10;;;6.00;99.90;;;;;;4856072;29;20265;-88
2022/11/16 13:44:27;;;;;;;4.57;2.30;;;4.20;99.90;;;;;;4896658;29;20168;-90
2022/11/16 13:47:02;;;;;;;2.07;1.57;;;4.20;99.90;;;;;;4878595;29;20189;-87
2022/11/16 13:49:39;;;;;;;2.80;2.30;;;4.20;99.90;;;;;;4871970;29;20650;-87
2022/11/16 13:52:07;;;;;;;5.30;2.03;;;7.90;99.90;;;;;;4896913;29;20730;-89
2022/11/16 13:54:37;;;;;;;2.80;2.03;;;4.20;99.90;;;;;;4898797;29;20177;-88
2022/11/16 13:57:21;;;;;;;2.63;1.90;;;4.40;99.90;;;;;;4882312;29;20264;-88
2022/11/16 13:59:51;;;;;;;2.77;1.93;;;4.20;99.90;;;;;;4880437;29;20677;-88
2022/11/16 14:02:40;;;;;;;2.07;1.80;;;4.40;99.90;;;;;;4882467;29;20280;-88
2022/11/16 14:05:12;;;;;;;6.27;3.00;;;4.10;99.90;;;;;;4874970;29;20185;-88
2022/11/16 14:07:43;;;;;;;11.03;5.43;;;4.10;99.90;;;;;;4882067;29;20185;-87
2022/11/16 14:10:34;;;;;;;4.20;2.90;;;4.10;99.90;;;;;;4899441;29;20589;-88
2022/11/16 14:13:04;;;;;;;4.27;1.90;;;4.00;99.90;;;;;;4849019;29;20185;-89
2022/11/16 14:15:37;;;;;;;6.00;2.33;;;4.00;99.90;;;;;;4897625;29;20207;-88
2022/11/16 14:18:06;;;;;;;9.63;3.80;;;4.00;99.90;;;;;;4899187;29;20269;-88
2022/11/16 14:21:20;;;;;;;3.17;2.20;;;4.00;99.90;;;;;;4883113;29;20212;-91
2022/11/16 14:24:11;;;;;;;3.00;1.77;;;4.00;99.90;;;;;;4838171;29;20191;-85
2022/11/16 14:26:45;;;;;;;1.10;0.90;;;3.90;99.90;;;;;;4841291;29;20641;-86
2022/11/16 14:29:18;;;;;;;15.30;6.40;;;3.90;99.90;;;;;;4865040;29;20232;-86
2022/11/16 14:31:51;;;;;;;7.97;4.27;;;3.90;99.90;;;;;;4885437;29;20205;-87
2022/11/16 14:34:21;;;;;;;40.43;12.73;;;3.80;99.90;;;;;;4884968;29;20197;-87
2022/11/16 14:36:48;;;;;;;6.30;2.97;;;5.30;99.90;;;;;;4891636;29;20193;-87
2022/11/16 14:39:13;;;;;;;8.07;4.17;;;3.80;99.90;;;;;;4905889;29;20188;-88